createdAt,value
2018-08-05T00:00:18.878Z,23.8
2018-08-05T00:01:20.263Z,23.9
2018-08-05T00:02:21.658Z,23.8
2018-08-05T00:03:23.055Z,23.8
2018-08-05T00:04:24.452Z,23.7
2018-08-05T00:05:25.850Z,23.7
2018-08-05T00:06:27.255Z,23.7
2018-08-05T00:07:28.651Z,23.7
2018-08-05T00:08:30.047Z,23.7
2018-08-05T00:09:31.440Z,23.7
2018-08-05T00:10:32.842Z,23.8
2018-08-05T00:11:34.230Z,23.8
2018-08-05T00:12:35.624Z,23.7
2018-08-05T00:13:37.020Z,23.7
2018-08-05T00:14:38.413Z,23.6
2018-08-05T00:15:39.805Z,23.7
2018-08-05T00:16:41.203Z,23.6
2018-08-05T00:17:42.596Z,23.6
2018-08-05T00:18:43.995Z,23.6
2018-08-05T00:19:45.396Z,23.5
2018-08-05T00:20:46.799Z,23.6
2018-08-05T00:21:48.186Z,23.5
2018-08-05T00:22:49.579Z,23.5
2018-08-05T00:23:50.976Z,23.5
2018-08-05T00:24:52.420Z,23.6
2018-08-05T00:25:53.821Z,23.4
2018-08-05T00:26:55.214Z,23.4
2018-08-05T00:27:56.614Z,23.4
2018-08-05T00:28:58.011Z,23.4
2018-08-05T00:29:59.410Z,23.2
2018-08-05T00:31:00.806Z,23.4
2018-08-05T00:32:02.199Z,23.3
2018-08-05T00:33:03.593Z,23.4
2018-08-05T00:34:04.986Z,23.3
2018-08-05T00:35:06.384Z,23.3
2018-08-05T00:36:07.816Z,23.2
2018-08-05T00:37:09.284Z,23.3
2018-08-05T00:38:10.683Z,23.2
2018-08-05T00:39:12.080Z,23.2
2018-08-05T00:40:13.475Z,23.3
2018-08-05T00:41:14.872Z,23.3
2018-08-05T00:42:16.269Z,23.2
2018-08-05T00:43:17.677Z,23.2
2018-08-05T00:44:19.073Z,23.1
2018-08-05T00:45:20.462Z,23.2
2018-08-05T00:46:21.856Z,23.2
2018-08-05T00:47:23.270Z,23.2
2018-08-05T00:48:24.652Z,23.2
2018-08-05T00:49:26.055Z,23.1
2018-08-05T00:50:27.447Z,23.2
2018-08-05T00:51:28.840Z,23.2
2018-08-05T00:52:30.242Z,23.2
2018-08-05T00:53:31.640Z,23.1
2018-08-05T00:54:33.036Z,23.1
2018-08-05T00:55:34.432Z,23.1
2018-08-05T00:56:35.837Z,23.0
2018-08-05T00:57:37.234Z,23.0
2018-08-05T00:58:38.633Z,22.9
2018-08-05T00:59:40.031Z,22.9
2018-08-05T01:00:41.426Z,22.9
2018-08-05T01:01:42.827Z,22.8
2018-08-05T01:02:44.224Z,22.9
2018-08-05T01:03:45.641Z,22.9
2018-08-05T01:04:47.044Z,22.8
2018-08-05T01:05:48.436Z,22.8
2018-08-05T01:06:49.832Z,23.0
2018-08-05T01:07:51.224Z,22.9
2018-08-05T01:08:52.615Z,22.9
2018-08-05T01:09:54.013Z,22.9
2018-08-05T01:10:55.410Z,22.9
2018-08-05T01:11:56.804Z,22.9
2018-08-05T01:12:58.199Z,22.8
2018-08-05T01:13:59.595Z,22.8
2018-08-05T01:15:00.981Z,22.8
2018-08-05T01:16:02.550Z,22.8
2018-08-05T01:17:03.946Z,22.8
2018-08-05T01:18:05.339Z,22.8
2018-08-05T01:19:06.735Z,22.8
2018-08-05T01:20:08.128Z,22.8
2018-08-05T01:21:09.525Z,22.7
2018-08-05T01:22:10.926Z,22.7
2018-08-05T01:23:12.324Z,22.8
2018-08-05T01:24:13.720Z,22.7
2018-08-05T01:25:15.134Z,22.7
2018-08-05T01:26:16.526Z,22.7
2018-08-05T01:27:17.918Z,22.7
2018-08-05T01:28:19.315Z,22.8
2018-08-05T01:29:20.708Z,22.7
2018-08-05T01:30:22.105Z,22.7
2018-08-05T01:31:23.522Z,22.7
2018-08-05T01:32:24.921Z,22.7
2018-08-05T01:33:26.320Z,22.7
2018-08-05T01:34:27.712Z,22.7
2018-08-05T01:35:29.119Z,22.6
2018-08-05T01:36:30.507Z,22.6
2018-08-05T01:37:31.906Z,22.7
2018-08-05T01:38:33.300Z,22.7
2018-08-05T01:39:34.696Z,22.7
2018-08-05T01:40:36.093Z,22.8
2018-08-05T01:41:37.483Z,22.7
2018-08-05T01:42:38.875Z,22.7
2018-08-05T01:43:40.270Z,22.7
2018-08-05T01:44:41.670Z,22.7
2018-08-05T01:45:43.066Z,22.8
2018-08-05T01:46:44.463Z,22.7
2018-08-05T01:47:45.858Z,22.7
2018-08-05T01:48:47.249Z,22.7
2018-08-05T01:49:48.645Z,22.8
2018-08-05T01:50:50.039Z,22.7
2018-08-05T01:51:51.437Z,22.7
2018-08-05T01:52:52.888Z,22.6
2018-08-05T01:53:54.235Z,22.7
2018-08-05T01:54:55.703Z,22.6
2018-08-05T01:55:57.149Z,22.7
2018-08-05T01:56:58.542Z,22.7
2018-08-05T01:57:59.937Z,22.5
2018-08-05T01:59:01.333Z,22.5
2018-08-05T02:00:02.728Z,22.5
2018-08-05T02:01:04.128Z,22.5
2018-08-05T02:02:05.524Z,22.5
2018-08-05T02:03:06.914Z,22.4
2018-08-05T02:04:08.311Z,22.4
2018-08-05T02:05:09.706Z,22.4
2018-08-05T02:06:11.097Z,22.4
2018-08-05T02:07:12.500Z,22.5
2018-08-05T02:08:13.895Z,22.5
2018-08-05T02:09:15.288Z,22.3
2018-08-05T02:10:16.688Z,22.3
2018-08-05T02:11:18.094Z,22.3
2018-08-05T02:12:19.475Z,22.3
2018-08-05T02:13:20.869Z,22.4
2018-08-05T02:14:22.268Z,22.4
2018-08-05T02:15:23.666Z,22.3
2018-08-05T02:16:25.056Z,22.4
2018-08-05T02:17:26.450Z,22.4
2018-08-05T02:18:27.849Z,22.4
2018-08-05T02:19:29.241Z,22.4
2018-08-05T02:20:30.635Z,22.3
2018-08-05T02:21:32.033Z,22.3
2018-08-05T02:22:33.428Z,22.3
2018-08-05T02:23:34.822Z,22.3
2018-08-05T02:24:36.218Z,22.3
2018-08-05T02:25:37.614Z,22.2
2018-08-05T02:26:39.016Z,22.1
2018-08-05T02:27:40.411Z,22.1
2018-08-05T02:28:41.806Z,22.1
2018-08-05T02:29:43.210Z,22.1
2018-08-05T02:30:44.601Z,22.1
2018-08-05T02:31:45.997Z,22.1
2018-08-05T02:32:47.382Z,22.1
2018-08-05T02:33:48.777Z,22.0
2018-08-05T02:34:50.327Z,22.1
2018-08-05T02:35:51.722Z,22.1
2018-08-05T02:36:53.117Z,22.1
2018-08-05T02:37:54.506Z,22.1
2018-08-05T02:38:55.901Z,22.1
2018-08-05T02:39:57.298Z,22.0
2018-08-05T02:40:58.692Z,21.9
2018-08-05T02:42:00.089Z,21.9
2018-08-05T02:43:01.486Z,22.0
2018-08-05T02:44:02.891Z,22.0
2018-08-05T02:45:04.287Z,22.0
2018-08-05T02:46:05.673Z,22.0
2018-08-05T02:47:07.067Z,22.0
2018-08-05T02:48:08.464Z,22.0
2018-08-05T02:49:09.860Z,22.0
2018-08-05T02:50:11.264Z,22.0
2018-08-05T02:51:12.661Z,22.0
2018-08-05T02:52:14.058Z,22.0
2018-08-05T02:53:15.455Z,22.0
2018-08-05T02:54:16.845Z,22.0
2018-08-05T02:55:18.240Z,22.0
2018-08-05T02:56:19.649Z,22.0
2018-08-05T02:57:21.027Z,22.0
2018-08-05T02:58:22.425Z,22.0
2018-08-05T02:59:23.824Z,22.0
2018-08-05T03:00:25.237Z,22.0
2018-08-05T03:01:26.633Z,21.9
2018-08-05T03:02:28.031Z,21.9
2018-08-05T03:03:29.433Z,21.9
2018-08-05T03:04:30.815Z,22.0
2018-08-05T03:05:32.221Z,21.9
2018-08-05T03:06:33.617Z,22.0
2018-08-05T03:07:35.003Z,22.0
2018-08-05T03:08:36.396Z,21.9
2018-08-05T03:09:37.792Z,22.0
2018-08-05T03:10:39.194Z,22.0
2018-08-05T03:11:40.595Z,21.9
2018-08-05T03:12:41.989Z,21.9
2018-08-05T03:13:43.447Z,22.0
2018-08-05T03:14:44.912Z,21.9
2018-08-05T03:15:46.301Z,21.9
2018-08-05T03:16:47.697Z,21.9
2018-08-05T03:17:49.089Z,21.9
2018-08-05T03:18:50.491Z,21.8
2018-08-05T03:19:51.886Z,21.9
2018-08-05T03:20:53.284Z,21.9
2018-08-05T03:21:54.680Z,21.8
2018-08-05T03:22:56.067Z,21.8
2018-08-05T03:23:57.461Z,21.8
2018-08-05T03:24:58.864Z,21.8
2018-08-05T03:26:00.263Z,21.8
2018-08-05T03:27:01.667Z,21.9
2018-08-05T03:28:03.068Z,21.8
2018-08-05T03:29:04.465Z,21.9
2018-08-05T03:30:05.869Z,21.8
2018-08-05T03:31:07.252Z,21.9
2018-08-05T03:32:08.650Z,21.8
2018-08-05T03:33:10.048Z,21.8
2018-08-05T03:34:11.447Z,21.8
2018-08-05T03:35:12.837Z,21.8
2018-08-05T03:36:14.228Z,21.7
2018-08-05T03:37:15.622Z,21.7
2018-08-05T03:38:17.015Z,21.7
2018-08-05T03:39:18.409Z,21.8
2018-08-05T03:40:19.806Z,21.8
2018-08-05T03:41:21.201Z,21.8
2018-08-05T03:42:22.591Z,21.8
2018-08-05T03:43:23.984Z,21.9
2018-08-05T03:44:25.388Z,21.8
2018-08-05T03:45:26.779Z,21.8
2018-08-05T03:46:28.174Z,21.9
2018-08-05T03:47:29.568Z,21.9
2018-08-05T03:48:30.966Z,21.8
2018-08-05T03:49:32.359Z,21.8
2018-08-05T03:50:33.747Z,21.9
2018-08-05T03:51:35.139Z,21.8
2018-08-05T03:52:36.532Z,21.8
2018-08-05T03:53:38.059Z,21.8
2018-08-05T03:54:39.459Z,21.8
2018-08-05T03:55:40.854Z,21.9
2018-08-05T03:56:42.248Z,21.8
2018-08-05T03:57:43.642Z,21.8
2018-08-05T03:58:45.039Z,21.7
2018-08-05T03:59:46.435Z,21.8
2018-08-05T04:00:47.830Z,21.7
2018-08-05T04:01:49.226Z,21.8
2018-08-05T04:02:50.624Z,21.8
2018-08-05T04:03:52.018Z,21.8
2018-08-05T04:04:53.414Z,21.8
2018-08-05T04:05:54.812Z,21.8
2018-08-05T04:06:56.207Z,21.8
2018-08-05T04:07:57.605Z,21.8
2018-08-05T04:08:58.997Z,21.8
2018-08-05T04:10:00.396Z,21.7
2018-08-05T04:11:01.794Z,21.7
2018-08-05T04:12:03.193Z,21.7
2018-08-05T04:13:04.593Z,21.7
2018-08-05T04:14:05.991Z,21.7
2018-08-05T04:15:07.382Z,21.7
2018-08-05T04:16:08.784Z,21.6
2018-08-05T04:17:10.180Z,21.7
2018-08-05T04:18:11.569Z,21.7
2018-08-05T04:19:12.965Z,21.8
2018-08-05T04:20:14.364Z,21.8
2018-08-05T04:21:15.769Z,21.8
2018-08-05T04:22:17.163Z,21.8
2018-08-05T04:23:18.560Z,21.8
2018-08-05T04:24:19.957Z,21.8
2018-08-05T04:25:21.358Z,21.8
2018-08-05T04:26:22.751Z,21.7
2018-08-05T04:27:24.144Z,21.8
2018-08-05T04:28:25.543Z,21.8
2018-08-05T04:29:26.942Z,21.7
2018-08-05T04:30:28.456Z,21.7
2018-08-05T04:31:29.741Z,21.7
2018-08-05T04:32:31.141Z,21.7
2018-08-05T04:33:32.571Z,21.6
2018-08-05T04:34:33.972Z,21.7
2018-08-05T04:35:35.363Z,21.6
2018-08-05T04:36:36.762Z,21.6
2018-08-05T04:37:38.160Z,21.5
2018-08-05T04:38:39.564Z,21.5
2018-08-05T04:39:40.992Z,21.4
2018-08-05T04:40:42.394Z,21.4
2018-08-05T04:41:43.784Z,21.4
2018-08-05T04:42:45.178Z,21.5
2018-08-05T04:43:46.575Z,21.5
2018-08-05T04:44:47.973Z,21.6
2018-08-05T04:45:49.421Z,21.6
2018-08-05T04:46:50.766Z,21.7
2018-08-05T04:47:52.176Z,21.7
2018-08-05T04:48:53.575Z,21.6
2018-08-05T04:49:54.973Z,21.6
2018-08-05T04:50:56.376Z,21.7
2018-08-05T04:51:57.774Z,21.7
2018-08-05T04:52:59.175Z,21.7
2018-08-05T04:54:00.570Z,21.7
2018-08-05T04:55:01.968Z,21.7
2018-08-05T04:56:03.374Z,21.7
2018-08-05T04:57:04.770Z,21.7
2018-08-05T04:58:06.166Z,21.7
2018-08-05T04:59:07.579Z,21.8
2018-08-05T05:00:08.977Z,21.8
2018-08-05T05:01:10.375Z,21.8
2018-08-05T05:02:11.767Z,21.8
2018-08-05T05:03:13.164Z,21.8
2018-08-05T05:04:14.561Z,21.8
2018-08-05T05:05:15.961Z,21.8
2018-08-05T05:06:17.363Z,21.8
2018-08-05T05:07:18.770Z,21.8
2018-08-05T05:08:20.170Z,21.8
2018-08-05T05:09:21.568Z,21.9
2018-08-05T05:10:22.962Z,21.9
2018-08-05T05:11:24.358Z,21.8
2018-08-05T05:12:25.956Z,21.8
2018-08-05T05:13:27.363Z,21.9
2018-08-05T05:14:28.766Z,22.0
2018-08-05T05:15:30.165Z,22.0
2018-08-05T05:16:31.563Z,21.9
2018-08-05T05:17:32.956Z,21.9
2018-08-05T05:18:34.350Z,22.0
2018-08-05T05:19:35.749Z,21.9
2018-08-05T05:20:37.146Z,21.9
2018-08-05T05:21:38.545Z,21.9
2018-08-05T05:22:39.948Z,22.0
2018-08-05T05:23:41.346Z,22.0
2018-08-05T05:24:42.743Z,22.0
2018-08-05T05:25:44.145Z,21.9
2018-08-05T05:26:45.544Z,22.0
2018-08-05T05:27:46.945Z,21.9
2018-08-05T05:28:48.340Z,22.1
2018-08-05T05:29:49.806Z,21.9
2018-08-05T05:30:51.143Z,22.0
2018-08-05T05:31:52.539Z,22.1
2018-08-05T05:32:53.935Z,22.2
2018-08-05T05:33:55.330Z,22.2
2018-08-05T05:34:56.733Z,22.1
2018-08-05T05:35:58.127Z,22.2
2018-08-05T05:36:59.527Z,22.2
2018-08-05T05:38:00.922Z,22.2
2018-08-05T05:39:02.330Z,22.1
2018-08-05T05:40:03.724Z,22.1
2018-08-05T05:41:05.124Z,22.1
2018-08-05T05:42:06.518Z,22.0
2018-08-05T05:43:07.920Z,22.1
2018-08-05T05:44:09.316Z,22.1
2018-08-05T05:45:10.712Z,22.1
2018-08-05T05:46:12.109Z,22.2
2018-08-05T05:47:13.510Z,22.2
2018-08-05T05:48:14.910Z,22.2
2018-08-05T05:49:16.308Z,22.3
2018-08-05T05:50:17.705Z,22.2
2018-08-05T05:51:19.104Z,22.3
2018-08-05T05:52:20.651Z,22.2
2018-08-05T05:53:22.081Z,22.3
2018-08-05T05:54:23.478Z,22.3
2018-08-05T05:55:24.872Z,22.4
2018-08-05T05:56:26.271Z,22.4
2018-08-05T05:57:27.675Z,22.4
2018-08-05T05:58:29.071Z,22.4
2018-08-05T05:59:30.473Z,22.4
2018-08-05T06:00:32.045Z,22.4
2018-08-05T06:01:33.442Z,22.3
2018-08-05T06:02:34.841Z,22.3
2018-08-05T06:03:36.241Z,22.3
2018-08-05T06:04:37.641Z,22.3
2018-08-05T06:05:39.040Z,22.4
2018-08-05T06:06:40.435Z,22.4
2018-08-05T06:07:41.828Z,22.4
2018-08-05T06:08:43.228Z,22.4
2018-08-05T06:09:44.626Z,22.4
2018-08-05T06:10:46.024Z,22.5
2018-08-05T06:11:47.419Z,22.5
2018-08-05T06:12:48.818Z,22.5
2018-08-05T06:13:50.216Z,22.6
2018-08-05T06:14:51.689Z,22.6
2018-08-05T06:15:53.108Z,22.4
2018-08-05T06:16:54.511Z,22.6
2018-08-05T06:17:55.954Z,22.5
2018-08-05T06:18:57.425Z,22.5
2018-08-05T06:19:58.839Z,22.5
2018-08-05T06:21:00.239Z,22.5
2018-08-05T06:22:01.636Z,22.5
2018-08-05T06:23:03.035Z,22.5
2018-08-05T06:24:04.436Z,22.5
2018-08-05T06:25:05.911Z,22.5
2018-08-05T06:26:07.266Z,22.6
2018-08-05T06:27:08.665Z,22.7
2018-08-05T06:28:10.070Z,22.7
2018-08-05T06:29:11.501Z,22.7
2018-08-05T06:30:12.950Z,22.7
2018-08-05T06:31:14.427Z,22.8
2018-08-05T06:32:15.841Z,22.7
2018-08-05T06:33:17.296Z,22.7
2018-08-05T06:34:18.690Z,22.6
2018-08-05T06:35:20.088Z,22.7
2018-08-05T06:36:21.497Z,22.8
2018-08-05T06:37:22.893Z,22.7
2018-08-05T06:38:24.303Z,22.6
2018-08-05T06:39:25.720Z,22.6
2018-08-05T06:40:37.477Z,22.7
2018-08-05T06:41:38.847Z,22.8
2018-08-05T06:43:00.431Z,22.8
2018-08-05T06:44:01.844Z,22.8
2018-08-05T06:45:24.523Z,22.8
2018-08-05T06:46:25.898Z,22.8
2018-08-05T06:47:27.334Z,22.9
2018-08-05T06:48:28.760Z,22.8
2018-08-05T06:49:30.131Z,22.9
2018-08-05T06:50:31.578Z,22.9
2018-08-05T06:51:33.146Z,22.8
2018-08-05T06:52:34.479Z,22.9
2018-08-05T06:53:35.875Z,22.9
2018-08-05T06:54:37.306Z,22.9
2018-08-05T06:55:38.701Z,22.9
2018-08-05T06:56:40.134Z,23.0
2018-08-05T06:57:41.505Z,23.1
2018-08-05T06:58:42.904Z,23.1
2018-08-05T06:59:44.303Z,23.1
2018-08-05T07:00:45.701Z,23.2
2018-08-05T07:01:47.098Z,23.1
2018-08-05T07:02:48.507Z,23.2
2018-08-05T07:03:49.903Z,23.3
2018-08-05T07:04:51.306Z,23.2
2018-08-05T07:05:52.705Z,23.1
2018-08-05T07:06:54.107Z,23.1
2018-08-05T07:07:55.499Z,23.1
2018-08-05T07:08:56.897Z,23.0
2018-08-05T07:09:58.332Z,23.0
2018-08-05T07:10:59.853Z,23.0
2018-08-05T07:12:01.312Z,23.0
2018-08-05T07:13:02.712Z,23.0
2018-08-05T07:14:04.115Z,23.0
2018-08-05T07:15:05.573Z,23.1
2018-08-05T07:16:06.980Z,23.1
2018-08-05T07:17:08.406Z,23.1
2018-08-05T07:18:09.807Z,23.1
2018-08-05T07:19:11.221Z,23.1
2018-08-05T07:20:12.612Z,23.2
2018-08-05T07:21:14.016Z,23.2
2018-08-05T07:22:15.458Z,23.1
2018-08-05T07:23:16.899Z,23.3
2018-08-05T07:24:18.298Z,23.3
2018-08-05T07:25:19.703Z,23.3
2018-08-05T07:26:21.104Z,23.3
2018-08-05T07:27:22.505Z,23.3
2018-08-05T07:28:23.910Z,23.3
2018-08-05T07:29:25.305Z,23.3
2018-08-05T07:30:26.739Z,23.2
2018-08-05T07:31:28.138Z,23.2
2018-08-05T07:32:29.541Z,23.4
2018-08-05T07:33:30.943Z,23.4
2018-08-05T07:34:32.371Z,23.5
2018-08-05T07:35:33.785Z,23.6
2018-08-05T07:36:35.331Z,23.6
2018-08-05T07:37:36.707Z,23.7
2018-08-05T07:38:38.110Z,23.7
2018-08-05T07:39:39.512Z,23.7
2018-08-05T07:40:40.924Z,23.8
2018-08-05T07:41:42.317Z,23.8
2018-08-05T07:42:43.729Z,23.8
2018-08-05T07:43:45.158Z,23.8
2018-08-05T07:44:46.529Z,23.9
2018-08-05T07:45:47.930Z,24.0
2018-08-05T07:46:49.349Z,23.9
2018-08-05T07:47:50.755Z,24.0
2018-08-05T07:48:52.156Z,24.1
2018-08-05T07:49:53.570Z,24.0
2018-08-05T07:50:55.006Z,24.0
2018-08-05T07:51:56.438Z,24.1
2018-08-05T07:52:57.848Z,24.1
2018-08-05T07:53:59.255Z,24.1
2018-08-05T07:55:00.659Z,24.3
2018-08-05T07:56:02.102Z,24.5
2018-08-05T07:57:03.468Z,24.5
2018-08-05T07:58:04.870Z,24.6
2018-08-05T07:59:06.328Z,24.5
2018-08-05T08:00:07.773Z,24.7
2018-08-05T08:01:09.153Z,24.8
2018-08-05T08:02:10.687Z,25.1
2018-08-05T08:03:12.157Z,25.1
2018-08-05T08:04:13.551Z,25.1
2018-08-05T08:05:14.957Z,25.1
2018-08-05T08:06:16.359Z,25.2
2018-08-05T08:07:17.756Z,25.2
2018-08-05T08:08:19.155Z,25.3
2018-08-05T08:09:20.563Z,25.4
2018-08-05T08:10:21.968Z,25.5
2018-08-05T08:11:23.369Z,25.4
2018-08-05T08:12:24.770Z,25.4
2018-08-05T08:13:26.177Z,25.2
2018-08-05T08:14:27.685Z,25.2
2018-08-05T08:15:28.986Z,25.1
2018-08-05T08:16:30.388Z,25.0
2018-08-05T08:17:31.833Z,25.0
2018-08-05T08:18:33.236Z,25.0
2018-08-05T08:19:34.634Z,25.0
2018-08-05T08:20:36.042Z,25.0
2018-08-05T08:21:37.452Z,25.1
2018-08-05T08:22:38.845Z,25.0
2018-08-05T08:23:40.241Z,25.1
2018-08-05T08:24:41.643Z,25.1
2018-08-05T08:25:43.048Z,25.0
2018-08-05T08:26:44.446Z,25.1
2018-08-05T08:27:45.846Z,25.3
2018-08-05T08:28:47.271Z,25.3
2018-08-05T08:29:48.657Z,25.3
2018-08-05T08:30:50.055Z,25.2
2018-08-05T08:31:51.473Z,25.3
2018-08-05T08:32:52.877Z,25.6
2018-08-05T08:33:54.278Z,25.7
2018-08-05T08:34:55.694Z,25.9
2018-08-05T08:35:57.187Z,26.1
2018-08-05T08:36:58.503Z,26.1
2018-08-05T08:37:59.905Z,26.2
2018-08-05T08:39:01.301Z,26.2
2018-08-05T08:40:02.748Z,26.3
2018-08-05T08:41:04.157Z,26.4
2018-08-05T08:42:05.546Z,26.4
2018-08-05T08:43:07.075Z,26.4
2018-08-05T08:44:08.484Z,26.3
2018-08-05T08:45:09.881Z,26.1
2018-08-05T08:46:11.283Z,26.1
2018-08-05T08:47:12.685Z,26.1
2018-08-05T08:48:14.106Z,26.0
2018-08-05T08:49:15.508Z,26.0
2018-08-05T08:50:16.908Z,25.9
2018-08-05T08:51:18.315Z,25.7
2018-08-05T08:52:19.720Z,25.7
2018-08-05T08:53:21.131Z,25.8
2018-08-05T08:54:22.549Z,25.8
2018-08-05T08:55:23.954Z,25.8
2018-08-05T08:56:25.364Z,26.0
2018-08-05T08:57:26.764Z,25.9
2018-08-05T08:58:28.162Z,25.9
2018-08-05T08:59:29.596Z,25.9
2018-08-05T09:00:31.010Z,25.9
2018-08-05T09:01:32.411Z,25.9
2018-08-05T09:02:33.815Z,25.8
2018-08-05T09:03:35.251Z,26.0
2018-08-05T09:04:36.652Z,26.0
2018-08-05T09:05:38.065Z,26.2
2018-08-05T09:06:39.476Z,26.3
2018-08-05T09:07:40.893Z,26.4
2018-08-05T09:08:42.303Z,26.6
2018-08-05T09:09:44.255Z,26.6
2018-08-05T09:10:45.661Z,26.6
2018-08-05T09:11:47.068Z,26.6
2018-08-05T09:12:48.467Z,26.6
2018-08-05T09:13:49.868Z,26.8
2018-08-05T09:14:51.282Z,26.8
2018-08-05T09:15:52.684Z,27.1
2018-08-05T09:16:54.085Z,27.1
2018-08-05T09:17:55.484Z,27.2
2018-08-05T09:18:56.887Z,27.2
2018-08-05T09:19:58.292Z,27.3
2018-08-05T09:20:59.691Z,27.3
2018-08-05T09:22:01.185Z,27.3
2018-08-05T09:23:02.593Z,27.5
2018-08-05T09:24:03.995Z,27.5
2018-08-05T09:25:05.394Z,27.6
2018-08-05T09:26:06.795Z,27.7
2018-08-05T09:27:09.008Z,27.8
2018-08-05T09:28:10.412Z,28.0
2018-08-05T09:29:11.816Z,28.3
2018-08-05T09:30:13.218Z,28.3
2018-08-05T09:31:14.621Z,28.2
2018-08-05T09:32:16.023Z,28.3
2018-08-05T09:33:17.427Z,28.4
2018-08-05T09:34:18.832Z,28.4
2018-08-05T09:35:20.239Z,28.2
2018-08-05T09:36:21.642Z,28.0
2018-08-05T09:37:23.181Z,28.1
2018-08-05T09:38:24.583Z,28.2
2018-08-05T09:39:25.986Z,28.2
2018-08-05T09:40:27.391Z,28.0
2018-08-05T09:41:28.796Z,28.1
2018-08-05T09:42:30.203Z,28.3
2018-08-05T09:43:31.716Z,28.5
2018-08-05T09:44:33.017Z,28.7
2018-08-05T09:45:34.423Z,28.9
2018-08-05T09:46:35.831Z,28.8
2018-08-05T09:47:37.243Z,28.8
2018-08-05T09:48:38.656Z,28.8
2018-08-05T09:49:40.071Z,28.8
2018-08-05T09:50:41.472Z,28.8
2018-08-05T09:51:42.875Z,28.9
2018-08-05T09:52:44.278Z,28.7
2018-08-05T09:53:45.680Z,28.6
2018-08-05T09:54:47.082Z,28.6
2018-08-05T09:55:48.488Z,28.5
2018-08-05T09:56:49.899Z,28.5
2018-08-05T09:57:51.296Z,28.6
2018-08-05T09:58:52.700Z,28.8
2018-08-05T09:59:54.288Z,29.1
2018-08-05T10:00:55.635Z,29.4
2018-08-05T10:01:57.036Z,29.7
2018-08-05T10:02:58.440Z,29.6
2018-08-05T10:03:59.845Z,29.5
2018-08-05T10:05:01.251Z,29.5
2018-08-05T10:06:02.656Z,29.3
2018-08-05T10:07:04.053Z,29.4
2018-08-05T10:08:05.479Z,29.3
2018-08-05T10:09:06.877Z,29.3
2018-08-05T10:10:08.281Z,29.5
2018-08-05T10:11:09.755Z,29.8
2018-08-05T10:12:11.091Z,29.9
2018-08-05T10:13:12.663Z,30.2
2018-08-05T10:14:14.023Z,30.4
2018-08-05T10:15:15.439Z,30.6
2018-08-05T10:16:17.002Z,30.6
2018-08-05T10:17:18.633Z,30.8
2018-08-05T10:18:20.043Z,31.0
2018-08-05T10:19:21.458Z,30.9
2018-08-05T10:20:22.975Z,31.1
2018-08-05T10:21:24.549Z,31.2
2018-08-05T10:22:25.949Z,31.4
2018-08-05T10:23:27.704Z,31.5
2018-08-05T10:24:29.232Z,31.5
2018-08-05T10:25:30.821Z,31.5
2018-08-05T10:26:32.381Z,31.3
2018-08-05T10:27:33.789Z,31.4
2018-08-05T10:28:35.286Z,31.5
2018-08-05T10:29:36.877Z,31.6
2018-08-05T10:30:38.440Z,31.6
2018-08-05T10:31:39.700Z,31.7
2018-08-05T10:32:41.193Z,31.9
2018-08-05T10:33:42.805Z,32.1
2018-08-05T10:34:44.281Z,32.3
2018-08-05T10:35:45.666Z,32.5
2018-08-05T10:36:47.135Z,32.4
2018-08-05T10:37:48.939Z,32.5
2018-08-05T10:38:50.487Z,32.6
2018-08-05T10:39:51.873Z,32.5
2018-08-05T10:40:53.326Z,32.2
2018-08-05T10:41:54.944Z,32.1
2018-08-05T10:42:56.460Z,32.0
2018-08-05T10:43:57.859Z,31.8
2018-08-05T10:44:59.328Z,31.6
2018-08-05T10:46:01.003Z,31.3
2018-08-05T10:47:02.587Z,31.0
2018-08-05T10:48:03.995Z,30.8
2018-08-05T10:49:05.423Z,30.5
2018-08-05T10:50:06.989Z,30.8
2018-08-05T10:51:08.572Z,31.0
2018-08-05T10:52:09.976Z,30.7
2018-08-05T10:53:11.391Z,30.7
2018-08-05T10:54:12.798Z,30.6
2018-08-05T10:55:14.334Z,30.5
2018-08-05T10:56:15.737Z,30.8
2018-08-05T10:57:17.141Z,31.2
2018-08-05T10:58:18.548Z,31.5
2018-08-05T10:59:21.079Z,31.8
2018-08-05T11:00:23.067Z,31.7
2018-08-05T11:01:24.469Z,31.4
2018-08-05T11:02:26.065Z,31.2
2018-08-05T11:03:27.603Z,31.1
2018-08-05T11:04:29.009Z,31.1
2018-08-05T11:05:30.419Z,31.1
2018-08-05T11:06:31.825Z,30.5
2018-08-05T11:07:33.306Z,30.1
2018-08-05T11:08:34.636Z,30.0
2018-08-05T11:09:36.040Z,29.9
2018-08-05T11:10:37.515Z,30.1
2018-08-05T11:11:38.919Z,30.5
2018-08-05T11:12:40.404Z,30.8
2018-08-05T11:13:42.035Z,31.1
2018-08-05T11:14:43.585Z,31.4
2018-08-05T11:15:44.987Z,31.9
2018-08-05T11:16:46.393Z,32.2
2018-08-05T11:17:47.961Z,32.4
2018-08-05T11:18:49.520Z,32.6
2018-08-05T11:19:50.871Z,32.9
2018-08-05T11:20:52.278Z,33.0
2018-08-05T11:21:53.684Z,33.0
2018-08-05T11:22:55.092Z,33.0
2018-08-05T11:23:56.503Z,33.3
2018-08-05T11:24:57.960Z,33.3
2018-08-05T11:25:59.320Z,33.3
2018-08-05T11:27:00.738Z,33.4
2018-08-05T11:28:02.494Z,33.4
2018-08-05T11:29:04.123Z,33.5
2018-08-05T11:30:05.532Z,33.5
2018-08-05T11:31:06.944Z,33.9
2018-08-05T11:32:08.397Z,33.9
2018-08-05T11:33:09.758Z,34.1
2018-08-05T11:34:11.170Z,34.3
2018-08-05T11:35:12.583Z,34.4
2018-08-05T11:36:14.077Z,34.5
2018-08-05T11:37:15.487Z,34.7
2018-08-05T11:38:16.904Z,34.9
2018-08-05T11:39:18.307Z,34.8
2018-08-05T11:40:19.720Z,34.5
2018-08-05T11:41:21.130Z,34.5
2018-08-05T11:42:22.792Z,34.7
2018-08-05T11:43:24.202Z,34.9
2018-08-05T11:44:25.734Z,35.1
2018-08-05T11:45:27.545Z,35.2
2018-08-05T11:46:29.297Z,35.2
2018-08-05T11:47:31.078Z,35.0
2018-08-05T11:48:33.078Z,34.8
2018-08-05T11:49:34.489Z,34.6
2018-08-05T11:50:36.018Z,34.3
2018-08-05T11:51:37.680Z,34.2
2018-08-05T11:52:39.082Z,34.4
2018-08-05T11:53:40.744Z,34.2
2018-08-05T11:54:42.772Z,34.0
2018-08-05T11:55:44.171Z,33.5
2018-08-05T11:56:45.583Z,33.2
2018-08-05T11:57:46.993Z,33.1
2018-08-05T11:58:48.398Z,33.4
2018-08-05T11:59:49.848Z,33.6
2018-08-05T12:00:51.272Z,33.9
2018-08-05T12:01:52.742Z,34.3
2018-08-05T12:02:54.342Z,34.3
2018-08-05T12:03:55.808Z,34.6
2018-08-05T12:04:57.213Z,34.6
2018-08-05T12:05:58.710Z,34.7
2018-08-05T12:07:00.123Z,34.8
2018-08-05T12:08:01.530Z,34.9
2018-08-05T12:09:02.962Z,34.8
2018-08-05T12:10:04.540Z,34.9
2018-08-05T12:11:05.912Z,34.9
2018-08-05T12:12:07.665Z,34.9
2018-08-05T12:13:09.223Z,34.6
2018-08-05T12:14:11.011Z,34.5
2018-08-05T12:15:12.419Z,34.6
2018-08-05T12:16:13.830Z,34.9
2018-08-05T12:17:15.240Z,35.2
2018-08-05T12:18:16.676Z,35.3
2018-08-05T12:19:18.243Z,35.3
2018-08-05T12:20:19.657Z,35.4
2018-08-05T12:21:21.063Z,35.6
2018-08-05T12:22:22.471Z,35.4
2018-08-05T12:23:23.912Z,35.5
2018-08-05T12:24:25.359Z,35.3
2018-08-05T12:25:26.774Z,35.2
2018-08-05T12:26:28.275Z,35.3
2018-08-05T12:27:30.156Z,35.5
2018-08-05T12:28:32.108Z,35.4
2018-08-05T12:29:33.519Z,35.5
2018-08-05T12:30:35.128Z,35.5
2018-08-05T12:31:36.570Z,35.3
2018-08-05T12:32:38.199Z,35.3
2018-08-05T12:33:49.285Z,35.5
2018-08-05T12:34:51.262Z,35.8
2018-08-05T12:35:52.668Z,36.0
2018-08-05T12:36:54.185Z,35.9
2018-08-05T12:37:55.685Z,35.8
2018-08-05T12:38:57.007Z,35.9
2018-08-05T12:39:58.416Z,36.0
2018-08-05T12:40:59.820Z,36.1
2018-08-05T12:42:01.228Z,36.0
2018-08-05T12:43:02.636Z,35.9
2018-08-05T12:44:04.056Z,35.8
2018-08-05T12:45:05.502Z,35.9
2018-08-05T12:46:06.910Z,36.1
2018-08-05T12:47:08.318Z,36.4
2018-08-05T12:48:09.732Z,36.2
2018-08-05T12:49:11.200Z,36.1
2018-08-05T12:50:12.631Z,36.3
2018-08-05T12:51:14.078Z,36.3
2018-08-05T12:52:15.442Z,36.3
2018-08-05T12:53:16.861Z,36.4
2018-08-05T12:54:18.267Z,36.2
2018-08-05T12:55:19.676Z,36.2
2018-08-05T12:56:21.081Z,36.1
2018-08-05T12:57:22.494Z,36.1
2018-08-05T12:58:23.909Z,36.2
2018-08-05T12:59:25.349Z,36.3
2018-08-05T13:00:26.731Z,36.4
2018-08-05T13:01:28.131Z,36.5
2018-08-05T13:02:29.541Z,36.6
2018-08-05T13:03:30.952Z,36.7
2018-08-05T13:04:32.364Z,36.8
2018-08-05T13:05:33.777Z,36.7
2018-08-05T13:06:35.189Z,36.4
2018-08-05T13:07:36.600Z,36.2
2018-08-05T13:08:38.008Z,36.3
2018-08-05T13:09:39.415Z,36.6
2018-08-05T13:10:40.823Z,36.7
2018-08-05T13:11:42.284Z,36.5
2018-08-05T13:12:43.665Z,36.3
2018-08-05T13:13:45.075Z,36.4
2018-08-05T13:14:46.484Z,36.4
2018-08-05T13:15:47.897Z,36.4
2018-08-05T13:16:49.313Z,36.4
2018-08-05T13:17:50.727Z,36.2
2018-08-05T13:18:52.186Z,36.4
2018-08-05T13:19:53.550Z,36.6
2018-08-05T13:20:54.959Z,36.4
2018-08-05T13:21:56.384Z,36.5
2018-08-05T13:22:57.772Z,36.7
2018-08-05T13:23:59.180Z,36.7
2018-08-05T13:25:00.588Z,36.6
2018-08-05T13:26:02.202Z,36.3
2018-08-05T13:27:03.607Z,36.2
2018-08-05T13:28:05.024Z,36.3
2018-08-05T13:29:06.439Z,36.5
2018-08-05T13:30:07.852Z,36.5
2018-08-05T13:31:09.311Z,36.3
2018-08-05T13:32:10.665Z,36.3
2018-08-05T13:33:12.076Z,36.2
2018-08-05T13:34:13.517Z,36.3
2018-08-05T13:35:14.904Z,36.1
2018-08-05T13:36:16.309Z,36.1
2018-08-05T13:37:17.721Z,36.1
2018-08-05T13:38:19.132Z,36.1